Time;durP1;ratioP1;P1;durP2;ratioP2;P2;SDS_P1;SDS_P2;PMS_P1;PMS_P2;Temp;Humidity;BMP_temperature;BMP_pressure;BME280_temperature;BME280_humidity;BME280_pressure;Samples;Min_cycle;Max_cycle;Signal;HPM_P1;HPM_P2
2024/02/04 00:01:54;;;;;;;11.45;3.00;;;;;;;;;;5075267;28;20046;-34
2024/02/04 00:04:19;;;;;;;9.63;3.00;;;;;;;;;;5075138;28;20048;-33
2024/02/04 00:06:44;;;;;;;6.80;3.03;;;;;;;;;;5075540;28;20259;-34
2024/02/04 00:09:10;;;;;;;9.17;3.27;;;;;;;;;;5075241;28;20028;-34
2024/02/04 00:11:35;;;;;;;11.87;3.33;;;;;;;;;;5074938;28;20339;-34
2024/02/04 00:14:00;;;;;;;11.20;3.47;;;;;;;;;;5074940;28;20255;-34
2024/02/04 00:16:25;;;;;;;12.63;3.60;;;;;;;;;;5074645;28;20266;-33
2024/02/04 00:18:51;;;;;;;13.52;3.95;;;;;;;;;;5074844;28;20020;-34
2024/02/04 00:21:16;;;;;;;11.57;4.70;;;;;;;;;;5074828;28;20020;-34
2024/02/04 00:23:41;;;;;;;10.47;4.27;;;;;;;;;;5074788;28;20347;-34
2024/02/04 00:26:06;;;;;;;13.33;4.80;;;;;;;;;;5074829;28;20316;-33
2024/02/04 00:28:31;;;;;;;15.83;5.03;;;;;;;;;;5074017;28;20267;-34
2024/02/04 00:30:58;;;;;;;12.63;6.10;;;;;;;;;;5074619;28;20339;-34
2024/02/04 00:33:24;;;;;;;15.82;5.93;;;;;;;;;;5074934;28;20292;-33
2024/02/04 00:35:49;;;;;;;15.00;6.17;;;;;;;;;;5075149;28;20095;-34
2024/02/04 00:38:14;;;;;;;17.92;6.53;;;;;;;;;;5074808;28;20664;-34
2024/02/04 00:40:39;;;;;;;20.67;8.10;;;;;;;;;;5074571;28;20048;-33
2024/02/04 00:43:05;;;;;;;30.17;8.35;;;;;;;;;;5074480;28;20278;-33
2024/02/04 00:45:30;;;;;;;27.25;8.68;;;;;;;;;;5074645;28;20016;-34
2024/02/04 00:47:55;;;;;;;34.42;8.73;;;;;;;;;;5074673;28;20048;-34
2024/02/04 00:50:20;;;;;;;23.57;9.27;;;;;;;;;;5074123;28;20018;-34
2024/02/04 00:52:45;;;;;;;32.45;9.45;;;;;;;;;;5074148;28;20311;-34
2024/02/04 00:55:11;;;;;;;36.87;9.73;;;;;;;;;;5073034;28;20017;-34
2024/02/04 00:57:36;;;;;;;31.05;9.05;;;;;;;;;;5074462;28;20320;-33
2024/02/04 01:00:01;;;;;;;28.27;8.98;;;;;;;;;;5074454;28;20110;-34
2024/02/04 01:02:27;;;;;;;27.48;10.55;;;;;;;;;;5074468;28;20044;-33
2024/02/04 01:04:52;;;;;;;34.90;9.77;;;;;;;;;;5073934;28;20125;-33
2024/02/04 01:07:18;;;;;;;32.95;9.15;;;;;;;;;;5074544;28;20042;-34
2024/02/04 01:09:43;;;;;;;29.70;8.95;;;;;;;;;;5074487;28;20120;-35
2024/02/04 01:12:08;;;;;;;31.10;8.47;;;;;;;;;;5073772;28;20025;-34
2024/02/04 01:14:33;;;;;;;37.72;9.68;;;;;;;;;;5074185;28;20757;-34
2024/02/04 01:16:59;;;;;;;30.70;8.15;;;;;;;;;;5073835;28;20021;-34
2024/02/04 01:19:24;;;;;;;25.40;7.82;;;;;;;;;;5073818;28;20017;-34
2024/02/04 01:21:49;;;;;;;28.90;8.67;;;;;;;;;;5073818;28;20371;-34
2024/02/04 01:24:14;;;;;;;28.97;8.63;;;;;;;;;;5074333;28;20255;-34
2024/02/04 01:26:39;;;;;;;24.70;7.30;;;;;;;;;;5074231;28;20263;-33
2024/02/04 01:29:04;;;;;;;18.67;6.90;;;;;;;;;;5074226;28;20254;-33
2024/02/04 01:31:30;;;;;;;25.70;6.47;;;;;;;;;;5074164;28;20033;-34
2024/02/04 01:33:55;;;;;;;16.10;5.97;;;;;;;;;;5073600;28;20259;-34
2024/02/04 01:36:20;;;;;;;17.10;5.47;;;;;;;;;;5074198;28;20254;-34
2024/02/04 01:38:45;;;;;;;18.27;5.33;;;;;;;;;;5073574;28;20926;-34
2024/02/04 01:41:10;;;;;;;20.65;5.90;;;;;;;;;;5073470;28;20247;-34
2024/02/04 01:43:35;;;;;;;16.23;5.55;;;;;;;;;;5074109;28;20020;-34
2024/02/04 01:46:01;;;;;;;18.80;5.07;;;;;;;;;;5073434;28;20024;-34
2024/02/04 01:48:27;;;;;;;18.73;5.13;;;;;;;;;;5073714;28;20756;-34
2024/02/04 01:50:53;;;;;;;12.50;4.15;;;;;;;;;;5073881;28;20044;-34
2024/02/04 01:53:21;;;;;;;13.48;3.75;;;;;;;;;;5073398;28;20021;-34
2024/02/04 01:55:48;;;;;;;12.70;3.80;;;;;;;;;;5073638;28;20024;-34
2024/02/04 01:58:14;;;;;;;13.25;3.95;;;;;;;;;;5073319;28;20074;-34
2024/02/04 02:00:40;;;;;;;17.70;3.70;;;;;;;;;;5073351;28;20020;-34
2024/02/04 02:03:06;;;;;;;10.05;4.00;;;;;;;;;;5073265;28;20020;-33
2024/02/04 02:05:31;;;;;;;11.10;3.33;;;;;;;;;;5073515;28;20017;-34
2024/02/04 02:07:56;;;;;;;15.95;4.05;;;;;;;;;;5073567;28;20052;-34
2024/02/04 02:10:23;;;;;;;13.18;3.78;;;;;;;;;;5073541;28;20026;-34
2024/02/04 02:12:55;;;;;;;14.43;4.25;;;;;;;;;;5073045;28;20023;-34
2024/02/04 02:15:22;;;;;;;10.20;3.47;;;;;;;;;;5073684;28;20036;-34
2024/02/04 02:17:53;;;;;;;9.93;3.15;;;;;;;;;;5073132;28;20463;-33
2024/02/04 02:20:23;;;;;;;11.75;3.47;;;;;;;;;;5073421;28;20104;-34
2024/02/04 02:22:51;;;;;;;9.32;3.38;;;;;;;;;;5073068;28;20016;-34
2024/02/04 02:25:16;;;;;;;13.57;3.53;;;;;;;;;;5073326;28;20104;-34
2024/02/04 02:27:48;;;;;;;15.60;3.53;;;;;;;;;;5073050;28;20070;-34
2024/02/04 02:30:14;;;;;;;12.43;3.67;;;;;;;;;;5073299;28;20028;-34
2024/02/04 02:32:39;;;;;;;10.50;4.30;;;;;;;;;;5073210;28;20074;-34
2024/02/04 02:35:04;;;;;;;9.82;4.05;;;;;;;;;;5073257;28;20017;-34
2024/02/04 02:37:36;;;;;;;11.10;3.60;;;;;;;;;;5073280;28;20050;-34
2024/02/04 02:40:03;;;;;;;11.32;3.85;;;;;;;;;;5072912;28;20027;-34
2024/02/04 02:42:29;;;;;;;9.32;3.55;;;;;;;;;;5072913;28;20088;-34
2024/02/04 02:44:55;;;;;;;9.77;3.83;;;;;;;;;;5072883;28;20017;-34
2024/02/04 02:47:22;;;;;;;11.70;3.95;;;;;;;;;;5073069;28;20032;-34
2024/02/04 02:49:47;;;;;;;13.25;4.35;;;;;;;;;;5072885;28;20035;-34
2024/02/04 02:52:12;;;;;;;13.23;4.20;;;;;;;;;;5076071;28;20016;-34
2024/02/04 02:54:37;;;;;;;15.07;4.47;;;;;;;;;;5076645;28;20091;-34
2024/02/04 02:57:03;;;;;;;15.15;4.05;;;;;;;;;;5076524;28;20247;-34
2024/02/04 02:59:28;;;;;;;14.48;4.47;;;;;;;;;;5077003;28;20456;-34
2024/02/04 03:01:53;;;;;;;10.47;4.20;;;;;;;;;;5076433;28;20491;-34
2024/02/04 03:04:19;;;;;;;15.23;4.83;;;;;;;;;;5076474;28;20282;-34
2024/02/04 03:06:44;;;;;;;14.70;4.43;;;;;;;;;;5076290;28;20338;-34
2024/02/04 03:09:10;;;;;;;17.07;4.53;;;;;;;;;;5076657;28;20016;-34
2024/02/04 03:11:37;;;;;;;18.38;4.72;;;;;;;;;;5076153;28;20287;-34
2024/02/04 03:14:02;;;;;;;14.52;4.70;;;;;;;;;;5076148;28;20029;-34
2024/02/04 03:16:27;;;;;;;17.70;5.07;;;;;;;;;;5076345;28;20069;-34
2024/02/04 03:18:53;;;;;;;16.87;5.20;;;;;;;;;;5076214;28;20243;-34
2024/02/04 03:21:18;;;;;;;21.05;5.68;;;;;;;;;;5076323;28;20337;-39
2024/02/04 03:23:43;;;;;;;16.83;5.53;;;;;;;;;;5076077;28;20371;-34
2024/02/04 03:26:09;;;;;;;18.25;5.70;;;;;;;;;;5075975;28;20353;-34
2024/02/04 03:28:34;;;;;;;15.02;4.97;;;;;;;;;;5075956;28;20035;-33
2024/02/04 03:31:00;;;;;;;16.02;4.60;;;;;;;;;;5076075;28;20024;-34
2024/02/04 03:33:25;;;;;;;22.80;5.33;;;;;;;;;;5075838;28;20460;-34
2024/02/04 03:35:50;;;;;;;11.70;4.63;;;;;;;;;;5076335;28;20254;-34
2024/02/04 03:38:15;;;;;;;17.07;5.37;;;;;;;;;;5076300;28;20017;-34
2024/02/04 03:40:42;;;;;;;16.17;4.33;;;;;;;;;;5075998;28;20295;-33
2024/02/04 03:43:08;;;;;;;13.43;4.15;;;;;;;;;;5075585;28;20312;-33
2024/02/04 03:45:33;;;;;;;18.05;4.03;;;;;;;;;;5075676;28;20017;-34
2024/02/04 03:47:58;;;;;;;17.13;4.50;;;;;;;;;;5075933;28;20048;-34
2024/02/04 03:50:23;;;;;;;14.27;3.40;;;;;;;;;;5075586;28;20292;-34
2024/02/04 03:52:48;;;;;;;15.38;4.35;;;;;;;;;;5075435;28;20314;-33
2024/02/04 03:55:14;;;;;;;10.23;2.95;;;;;;;;;;5075410;28;20017;-34
2024/02/04 03:57:39;;;;;;;12.25;2.80;;;;;;;;;;5075379;28;20028;-34
2024/02/04 04:00:05;;;;;;;5.57;2.17;;;;;;;;;;5074328;28;20020;-34
2024/02/04 04:02:30;;;;;;;13.10;2.30;;;;;;;;;;5075122;28;20146;-34
2024/02/04 04:04:55;;;;;;;15.07;2.20;;;;;;;;;;5075072;28;20048;-34
2024/02/04 04:07:20;;;;;;;10.57;3.00;;;;;;;;;;5075154;28;20258;-34
2024/02/04 04:09:45;;;;;;;10.33;2.10;;;;;;;;;;5075174;28;20275;-32
2024/02/04 04:12:11;;;;;;;14.17;2.60;;;;;;;;;;5075254;28;20366;-34
2024/02/04 04:14:36;;;;;;;9.10;2.30;;;;;;;;;;5075130;28;20251;-34
2024/02/04 04:17:01;;;;;;;8.90;2.40;;;;;;;;;;5075032;28;20305;-35
2024/02/04 04:19:26;;;;;;;12.35;2.35;;;;;;;;;;5074965;28;20301;-34
2024/02/04 04:21:51;;;;;;;9.07;2.30;;;;;;;;;;5075443;28;20099;-34
2024/02/04 04:24:19;;;;;;;15.93;2.93;;;;;;;;;;5075149;28;20266;-34
2024/02/04 04:26:44;;;;;;;8.95;2.58;;;;;;;;;;5074725;28;20266;-33
2024/02/04 04:29:10;;;;;;;13.93;2.72;;;;;;;;;;5075393;28;20036;-34
2024/02/04 04:31:35;;;;;;;14.25;3.13;;;;;;;;;;5074654;28;20028;-33
2024/02/04 04:34:00;;;;;;;9.82;2.83;;;;;;;;;;5074723;28;20028;-34
2024/02/04 04:36:25;;;;;;;10.93;3.43;;;;;;;;;;5074626;28;20024;-33
2024/02/04 04:38:50;;;;;;;12.97;2.90;;;;;;;;;;5075040;28;20330;-34
2024/02/04 04:41:16;;;;;;;11.98;2.92;;;;;;;;;;5074713;28;20255;-34
2024/02/04 04:43:41;;;;;;;15.15;3.45;;;;;;;;;;5074472;28;20027;-34
2024/02/04 04:46:06;;;;;;;14.30;3.50;;;;;;;;;;5074924;28;20028;-34
2024/02/04 04:48:31;;;;;;;18.67;3.50;;;;;;;;;;5074351;28;20614;-34
2024/02/04 04:50:56;;;;;;;17.17;3.67;;;;;;;;;;5074793;28;20312;-34
2024/02/04 04:53:21;;;;;;;13.27;3.40;;;;;;;;;;5074533;28;20601;-34
2024/02/04 04:55:47;;;;;;;16.20;3.40;;;;;;;;;;5074760;28;20270;-34
2024/02/04 04:58:12;;;;;;;13.17;3.20;;;;;;;;;;5074246;28;20357;-33
2024/02/04 05:00:37;;;;;;;15.60;3.20;;;;;;;;;;5074724;28;20320;-33
2024/02/04 05:03:03;;;;;;;15.20;3.50;;;;;;;;;;5073973;28;20634;-33
2024/02/04 05:05:28;;;;;;;16.15;3.40;;;;;;;;;;5074053;28;20345;-34
2024/02/04 05:07:53;;;;;;;11.03;3.20;;;;;;;;;;5074052;28;20017;-34
2024/02/04 05:10:18;;;;;;;16.20;3.43;;;;;;;;;;5074290;28;20274;-33
2024/02/04 05:12:43;;;;;;;11.27;2.87;;;;;;;;;;5074120;28;20611;-34
2024/02/04 05:15:09;;;;;;;10.90;3.00;;;;;;;;;;5074003;28;20349;-33
2024/02/04 05:17:35;;;;;;;8.95;2.67;;;;;;;;;;5074348;28;20016;-34
2024/02/04 05:20:00;;;;;;;15.50;3.03;;;;;;;;;;5074168;28;20017;-34
2024/02/04 05:22:25;;;;;;;14.90;3.08;;;;;;;;;;5074303;28;20415;-34
2024/02/04 05:24:50;;;;;;;14.00;3.10;;;;;;;;;;5074260;28;20108;-34
2024/02/04 05:27:15;;;;;;;11.73;3.13;;;;;;;;;;5074031;28;20738;-32
2024/02/04 05:29:41;;;;;;;13.77;3.17;;;;;;;;;;5074188;28;20267;-34
2024/02/04 05:32:07;;;;;;;14.03;3.23;;;;;;;;;;5073850;28;20625;-34
2024/02/04 05:34:34;;;;;;;12.38;3.20;;;;;;;;;;5073574;28;20255;-34
2024/02/04 05:36:59;;;;;;;20.48;3.63;;;;;;;;;;5073548;28;20024;-34
2024/02/04 05:39:24;;;;;;;15.77;3.83;;;;;;;;;;5074179;28;20008;-34
2024/02/04 05:41:49;;;;;;;23.23;4.32;;;;;;;;;;5073437;28;20255;-34
2024/02/04 05:44:15;;;;;;;17.10;3.80;;;;;;;;;;5074054;28;20020;-34
2024/02/04 05:46:40;;;;;;;14.33;3.83;;;;;;;;;;5074059;28;20258;-34
2024/02/04 05:49:05;;;;;;;17.77;4.00;;;;;;;;;;5073700;28;20597;-34
2024/02/04 05:51:37;;;;;;;17.30;4.25;;;;;;;;;;5073352;28;20020;-33
2024/02/04 05:54:02;;;;;;;19.20;4.73;;;;;;;;;;5073450;28;20483;-34
2024/02/04 05:56:28;;;;;;;17.60;4.33;;;;;;;;;;5073364;28;20251;-34
2024/02/04 05:58:53;;;;;;;18.27;4.20;;;;;;;;;;5073600;28;20251;-34
2024/02/04 06:01:18;;;;;;;11.43;3.67;;;;;;;;;;5073623;28;20051;-34
2024/02/04 06:03:43;;;;;;;13.23;4.30;;;;;;;;;;5073518;28;20051;-33
2024/02/04 06:06:09;;;;;;;17.77;4.03;;;;;;;;;;5073289;28;20346;-34
2024/02/04 06:08:34;;;;;;;19.38;4.32;;;;;;;;;;5073258;28;20262;-34
2024/02/04 06:10:59;;;;;;;16.63;3.83;;;;;;;;;;5073112;28;20464;-34
2024/02/04 06:13:24;;;;;;;11.80;3.77;;;;;;;;;;5073491;28;20401;-34
2024/02/04 06:15:49;;;;;;;10.57;3.73;;;;;;;;;;5073244;28;20251;-34
2024/02/04 06:18:14;;;;;;;17.17;3.90;;;;;;;;;;5073133;28;20269;-33
2024/02/04 06:20:40;;;;;;;15.70;3.93;;;;;;;;;;5073723;28;20025;-34
2024/02/04 06:23:06;;;;;;;13.38;3.65;;;;;;;;;;5073151;28;20257;-34
2024/02/04 06:25:31;;;;;;;17.20;4.10;;;;;;;;;;5073833;28;20104;-34
2024/02/04 06:27:56;;;;;;;14.23;3.90;;;;;;;;;;5075759;28;20012;-34
2024/02/04 06:30:21;;;;;;;10.63;3.70;;;;;;;;;;5077361;28;20326;-34
2024/02/04 06:32:49;;;;;;;14.70;4.03;;;;;;;;;;5077017;28;20332;-34
2024/02/04 06:35:15;;;;;;;16.88;5.38;;;;;;;;;;5077521;28;20308;-34
2024/02/04 06:37:40;;;;;;;15.20;4.60;;;;;;;;;;5076955;28;20020;-34
2024/02/04 06:40:06;;;;;;;11.38;4.50;;;;;;;;;;5077175;28;20141;-34
2024/02/04 06:42:31;;;;;;;15.35;5.07;;;;;;;;;;5076833;28;20498;-34
2024/02/04 06:44:56;;;;;;;15.20;4.80;;;;;;;;;;5077377;28;20020;-34
2024/02/04 06:47:21;;;;;;;14.20;5.10;;;;;;;;;;5076813;28;20338;-33
2024/02/04 06:49:46;;;;;;;13.03;5.77;;;;;;;;;;5076749;28;20017;-34
2024/02/04 06:52:12;;;;;;;16.10;5.63;;;;;;;;;;5076561;28;20283;-34
2024/02/04 06:54:37;;;;;;;17.30;6.35;;;;;;;;;;5077127;28;20255;-34
2024/02/04 06:57:02;;;;;;;15.10;5.60;;;;;;;;;;5076599;28;20138;-34
2024/02/04 06:59:27;;;;;;;15.85;6.25;;;;;;;;;;5076702;28;20259;-34
2024/02/04 07:01:53;;;;;;;15.60;6.50;;;;;;;;;;5076758;28;20367;-34
2024/02/04 07:04:18;;;;;;;13.35;6.68;;;;;;;;;;5076446;28;20104;-34
2024/02/04 07:06:43;;;;;;;21.92;7.13;;;;;;;;;;5076408;28;20451;-34
2024/02/04 07:09:08;;;;;;;15.90;7.23;;;;;;;;;;5076382;28;20468;-33
2024/02/04 07:11:33;;;;;;;19.70;7.93;;;;;;;;;;5076166;28;20290;-34
2024/02/04 07:14:00;;;;;;;20.00;8.43;;;;;;;;;;5076241;28;20736;-34
2024/02/04 07:16:25;;;;;;;20.30;8.65;;;;;;;;;;5076168;28;20346;-34
2024/02/04 07:18:50;;;;;;;19.48;9.07;;;;;;;;;;5076404;28;20063;-34
2024/02/04 07:21:15;;;;;;;18.13;7.93;;;;;;;;;;5076659;28;20093;-34
2024/02/04 07:23:41;;;;;;;25.35;8.90;;;;;;;;;;5076657;28;20069;-34
2024/02/04 07:26:06;;;;;;;26.80;8.68;;;;;;;;;;5075951;28;20043;-34
2024/02/04 07:28:31;;;;;;;24.37;8.37;;;;;;;;;;5076560;28;20130;-34
2024/02/04 07:30:57;;;;;;;23.00;7.10;;;;;;;;;;5076195;28;20258;-34
2024/02/04 07:33:22;;;;;;;21.63;7.50;;;;;;;;;;5076385;28;20271;-34
2024/02/04 07:35:47;;;;;;;20.75;7.28;;;;;;;;;;5076386;28;20297;-34
2024/02/04 07:38:13;;;;;;;15.65;6.15;;;;;;;;;;5075301;28;20017;-34
2024/02/04 07:40:38;;;;;;;17.52;5.70;;;;;;;;;;5075970;28;20089;-34
2024/02/04 07:43:03;;;;;;;14.48;5.65;;;;;;;;;;5075979;28;20378;-35
2024/02/04 07:45:28;;;;;;;12.43;5.13;;;;;;;;;;5075650;28;20517;-34
2024/02/04 07:47:53;;;;;;;11.03;4.43;;;;;;;;;;5076137;28;20275;-34
2024/02/04 07:50:18;;;;;;;12.00;4.05;;;;;;;;;;5075880;28;20345;-34
2024/02/04 07:52:44;;;;;;;9.77;3.60;;;;;;;;;;5075493;28;20063;-34
2024/02/04 07:55:09;;;;;;;8.10;3.20;;;;;;;;;;5075764;28;20258;-34
2024/02/04 07:57:35;;;;;;;11.90;3.30;;;;;;;;;;5075702;28;20259;-34
2024/02/04 08:00:03;;;;;;;8.65;2.92;;;;;;;;;;5075956;28;20017;-34
2024/02/04 08:02:28;;;;;;;10.15;3.78;;;;;;;;;;5075418;28;20371;-34
2024/02/04 08:04:53;;;;;;;7.10;2.72;;;;;;;;;;5075216;28;20096;-34
2024/02/04 08:07:20;;;;;;;10.77;3.00;;;;;;;;;;5075274;28;20464;-34
2024/02/04 08:09:45;;;;;;;10.88;2.90;;;;;;;;;;5075430;28;20039;-34
2024/02/04 08:12:10;;;;;;;7.72;2.20;;;;;;;;;;5075048;28;20467;-34
2024/02/04 08:14:36;;;;;;;8.13;2.45;;;;;;;;;;5075180;28;20424;-34
2024/02/04 08:17:01;;;;;;;5.63;2.13;;;;;;;;;;5075327;28;20086;-34
2024/02/04 08:19:26;;;;;;;8.30;2.10;;;;;;;;;;5075691;28;20289;-34
2024/02/04 08:21:51;;;;;;;7.93;2.30;;;;;;;;;;5075006;28;20672;-34
2024/02/04 08:24:16;;;;;;;8.38;2.15;;;;;;;;;;5075454;28;20262;-34
2024/02/04 08:26:42;;;;;;;5.47;2.20;;;;;;;;;;5075387;28;20032;-33
2024/02/04 08:29:07;;;;;;;6.30;2.15;;;;;;;;;;5073713;28;20258;-35
2024/02/04 08:31:33;;;;;;;12.30;2.40;;;;;;;;;;5074655;28;20027;-34
2024/02/04 08:33:58;;;;;;;11.73;2.60;;;;;;;;;;5075028;28;20389;-33
2024/02/04 08:36:24;;;;;;;8.57;2.20;;;;;;;;;;5074729;28;20440;-34
2024/02/04 08:38:49;;;;;;;8.20;2.50;;;;;;;;;;5074709;28;20251;-34
2024/02/04 08:41:14;;;;;;;7.00;2.20;;;;;;;;;;5074568;28;20579;-34
2024/02/04 08:43:39;;;;;;;6.47;2.80;;;;;;;;;;5074810;28;20361;-34
2024/02/04 08:46:05;;;;;;;12.80;3.80;;;;;;;;;;5074488;28;20602;-34
2024/02/04 08:48:30;;;;;;;16.20;4.60;;;;;;;;;;5073549;28;20300;-34
2024/02/04 08:50:55;;;;;;;10.30;4.60;;;;;;;;;;5074738;28;20016;-34
2024/02/04 08:53:21;;;;;;;13.93;5.00;;;;;;;;;;5074335;28;20281;-34
2024/02/04 08:55:46;;;;;;;15.57;5.25;;;;;;;;;;5074591;28;20319;-34
2024/02/04 08:58:11;;;;;;;16.47;5.60;;;;;;;;;;5074182;28;20024;-34
2024/02/04 09:00:36;;;;;;;18.40;6.27;;;;;;;;;;5074753;28;20247;-34
2024/02/04 09:03:02;;;;;;;12.88;5.55;;;;;;;;;;5074480;28;20385;-34
2024/02/04 09:05:27;;;;;;;16.48;5.88;;;;;;;;;;5074417;28;20070;-34
2024/02/04 09:07:55;;;;;;;12.97;4.90;;;;;;;;;;5074090;28;20099;-34
2024/02/04 09:10:20;;;;;;;11.23;4.13;;;;;;;;;;5074286;28;20266;-34
2024/02/04 09:12:45;;;;;;;17.97;4.40;;;;;;;;;;5073745;28;20349;-34
2024/02/04 09:15:10;;;;;;;9.27;3.53;;;;;;;;;;5073926;28;20024;-34
2024/02/04 09:17:35;;;;;;;9.10;3.50;;;;;;;;;;5074438;28;20017;-34
2024/02/04 09:20:01;;;;;;;9.63;2.95;;;;;;;;;;5073877;28;20745;-34
2024/02/04 09:22:26;;;;;;;13.93;3.00;;;;;;;;;;5074098;28;20021;-34
2024/02/04 09:24:51;;;;;;;6.38;2.80;;;;;;;;;;5074314;28;20017;-34
2024/02/04 09:27:16;;;;;;;6.53;2.63;;;;;;;;;;5073771;28;20434;-34
2024/02/04 09:29:41;;;;;;;5.27;2.60;;;;;;;;;;5074197;28;20267;-34
2024/02/04 09:32:07;;;;;;;7.53;2.17;;;;;;;;;;5073641;28;20439;-34
2024/02/04 09:34:32;;;;;;;6.20;2.38;;;;;;;;;;5072784;28;20356;-34
2024/02/04 09:36:58;;;;;;;7.87;2.40;;;;;;;;;;5073616;28;20028;-34
2024/02/04 09:39:23;;;;;;;4.43;2.10;;;;;;;;;;5073867;28;20338;-34
2024/02/04 09:41:48;;;;;;;9.07;2.30;;;;;;;;;;5073607;28;20020;-34
2024/02/04 09:44:14;;;;;;;8.90;2.70;;;;;;;;;;5073856;28;20269;-34
2024/02/04 09:46:39;;;;;;;4.28;2.03;;;;;;;;;;5073529;28;20056;-34
2024/02/04 09:49:05;;;;;;;6.63;2.35;;;;;;;;;;5073694;28;20052;-33
2024/02/04 09:51:30;;;;;;;4.97;1.90;;;;;;;;;;5073427;28;20499;-34
2024/02/04 09:53:57;;;;;;;8.13;2.72;;;;;;;;;;5073994;28;20016;-33
2024/02/04 09:56:25;;;;;;;6.63;2.13;;;;;;;;;;5072154;28;20387;-34
2024/02/04 09:58:52;;;;;;;5.40;2.00;;;;;;;;;;5073995;28;20043;-33
2024/02/04 10:01:18;;;;;;;8.48;2.03;;;;;;;;;;5072977;28;20016;-34
2024/02/04 10:03:43;;;;;;;4.72;1.60;;;;;;;;;;5071883;28;20051;-34
2024/02/04 10:06:09;;;;;;;3.80;1.40;;;;;;;;;;5073308;28;20023;-33
2024/02/04 10:08:37;;;;;;;6.22;2.15;;;;;;;;;;5073225;28;20263;-34
2024/02/04 10:11:02;;;;;;;8.27;1.90;;;;;;;;;;5073726;28;20024;-34
2024/02/04 10:13:28;;;;;;;6.60;1.60;;;;;;;;;;5073476;28;20032;-33
2024/02/04 10:15:53;;;;;;;7.07;1.50;;;;;;;;;;5073806;28;20017;-34
2024/02/04 10:18:18;;;;;;;6.10;1.60;;;;;;;;;;5073154;28;20463;-33
2024/02/04 10:20:43;;;;;;;6.47;1.92;;;;;;;;;;5073131;28;20016;-33
2024/02/04 10:23:08;;;;;;;4.03;1.55;;;;;;;;;;5073156;28;20017;-34
2024/02/04 10:25:34;;;;;;;9.38;1.65;;;;;;;;;;5073154;28;20027;-34
2024/02/04 10:27:59;;;;;;;6.70;1.50;;;;;;;;;;5071905;28;20464;-34
2024/02/04 10:30:24;;;;;;;4.55;1.35;;;;;;;;;;5073115;28;20471;-33
2024/02/04 10:32:53;;;;;;;7.60;1.85;;;;;;;;;;5072952;28;20035;-33
2024/02/04 10:35:22;;;;;;;5.88;1.30;;;;;;;;;;5073558;28;20471;-34
2024/02/04 10:37:47;;;;;;;4.75;1.58;;;;;;;;;;5072986;28;20009;-33
2024/02/04 10:40:13;;;;;;;3.30;1.17;;;;;;;;;;5073079;28;20021;-34
2024/02/04 10:42:38;;;;;;;4.82;1.30;;;;;;;;;;5072973;28;20251;-33
2024/02/04 10:45:07;;;;;;;4.47;1.30;;;;;;;;;;5073200;28;20383;-33
2024/02/04 10:47:33;;;;;;;3.28;1.10;;;;;;;;;;5072785;28;20020;-33
2024/02/04 10:49:59;;;;;;;8.75;2.10;;;;;;;;;;5073535;28;20024;-34
2024/02/04 10:52:25;;;;;;;2.58;1.13;;;;;;;;;;5073464;28;20444;-34
2024/02/04 10:54:51;;;;;;;4.60;1.52;;;;;;;;;;5073172;28;20027;-33
2024/02/04 10:57:19;;;;;;;4.78;1.30;;;;;;;;;;5073103;28;20021;-34
2024/02/04 10:59:47;;;;;;;6.07;1.50;;;;;;;;;;5072768;28;20352;-34
2024/02/04 11:02:12;;;;;;;3.85;1.70;;;;;;;;;;5072999;28;20375;-33
2024/02/04 11:04:38;;;;;;;5.05;1.33;;;;;;;;;;5072658;28;20056;-33
2024/02/04 11:07:04;;;;;;;9.77;1.63;;;;;;;;;;5073033;28;20429;-33
2024/02/04 11:09:29;;;;;;;7.18;1.40;;;;;;;;;;5072748;28;20016;-34
2024/02/04 11:11:57;;;;;;;4.63;1.70;;;;;;;;;;5073360;28;20023;-34
2024/02/04 11:14:22;;;;;;;4.40;1.65;;;;;;;;;;5075956;28;20259;-34
2024/02/04 11:17:08;;;;;;;5.53;1.60;;;;;;;;;;5076095;28;20023;-34
2024/02/04 11:19:42;;;;;;;4.50;1.67;;;;;;;;;;5075143;28;20016;-34
2024/02/04 11:22:19;;;;;;;6.15;1.70;;;;;;;;;;5076776;28;20073;-34
2024/02/04 11:24:59;;;;;;;7.72;2.67;;;;;;;;;;5076105;28;20027;-34
2024/02/04 11:27:24;;;;;;;5.55;2.05;;;;;;;;;;5076148;28;20095;-33
2024/02/04 11:29:50;;;;;;;9.93;2.80;;;;;;;;;;5076112;28;20098;-33
2024/02/04 11:32:16;;;;;;;9.90;2.75;;;;;;;;;;5075954;28;20016;-33
2024/02/04 11:34:42;;;;;;;11.13;2.70;;;;;;;;;;5076220;28;20021;-34
2024/02/04 11:37:15;;;;;;;10.97;2.90;;;;;;;;;;5075865;28;20356;-34
2024/02/04 11:39:47;;;;;;;16.50;4.15;;;;;;;;;;5075848;28;20730;-33
2024/02/04 11:42:19;;;;;;;12.73;3.53;;;;;;;;;;5075789;28;20033;-34
2024/02/04 11:44:45;;;;;;;15.43;3.00;;;;;;;;;;5076059;28;20097;-33
2024/02/04 11:47:10;;;;;;;13.48;2.92;;;;;;;;;;5076141;28;20324;-34
2024/02/04 11:49:35;;;;;;;15.02;3.45;;;;;;;;;;5073768;28;20104;-34
2024/02/04 11:52:01;;;;;;;11.93;2.80;;;;;;;;;;5075447;28;20021;-34
2024/02/04 11:54:26;;;;;;;10.48;2.70;;;;;;;;;;5076058;28;20279;-34
2024/02/04 11:56:56;;;;;;;16.75;3.03;;;;;;;;;;5075439;28;20009;-34
2024/02/04 11:59:23;;;;;;;11.73;2.40;;;;;;;;;;5075392;28;20086;-34
2024/02/04 12:01:48;;;;;;;18.90;3.50;;;;;;;;;;5075603;28;20525;-33
2024/02/04 12:04:15;;;;;;;15.63;2.78;;;;;;;;;;5075185;28;20048;-34
2024/02/04 12:06:41;;;;;;;13.02;2.88;;;;;;;;;;5075047;28;20106;-33
2024/02/04 12:09:08;;;;;;;19.98;3.70;;;;;;;;;;5075063;28;20025;-33
2024/02/04 12:11:35;;;;;;;18.42;3.63;;;;;;;;;;5075178;28;20164;-34
2024/02/04 12:14:01;;;;;;;13.50;2.83;;;;;;;;;;5074991;28;20360;-33
2024/02/04 12:16:26;;;;;;;14.45;3.00;;;;;;;;;;5075098;28;20526;-34
2024/02/04 12:18:51;;;;;;;13.60;3.08;;;;;;;;;;5074149;28;20055;-34
2024/02/04 12:21:17;;;;;;;14.18;2.60;;;;;;;;;;5074850;28;20028;-33
2024/02/04 12:23:42;;;;;;;14.95;3.20;;;;;;;;;;5074907;28;20012;-33
2024/02/04 12:26:07;;;;;;;12.27;2.63;;;;;;;;;;5074798;28;20016;-33
2024/02/04 12:28:32;;;;;;;9.60;2.50;;;;;;;;;;5074816;28;20016;-34
2024/02/04 12:30:59;;;;;;;13.43;2.63;;;;;;;;;;5074737;28;20258;-34
2024/02/04 12:33:24;;;;;;;10.02;2.30;;;;;;;;;;5074503;28;20023;-42
2024/02/04 12:35:55;;;;;;;10.32;2.22;;;;;;;;;;5075177;28;20132;-34
2024/02/04 12:38:21;;;;;;;11.90;2.25;;;;;;;;;;5074758;28;20020;-34
2024/02/04 12:40:46;;;;;;;11.35;2.30;;;;;;;;;;5074837;28;20434;-34
2024/02/04 12:43:11;;;;;;;9.65;2.22;;;;;;;;;;5074959;28;20487;-33
2024/02/04 12:45:37;;;;;;;12.20;2.47;;;;;;;;;;5074393;28;20468;-34
2024/02/04 12:48:02;;;;;;;13.00;2.50;;;;;;;;;;5074307;28;20035;-34
2024/02/04 12:50:28;;;;;;;9.02;2.20;;;;;;;;;;5074507;28;20104;-34
2024/02/04 12:53:06;;;;;;;11.73;2.30;;;;;;;;;;5074163;28;20467;-34
2024/02/04 12:55:33;;;;;;;14.75;3.13;;;;;;;;;;5074872;28;20027;-35
2024/02/04 12:58:03;;;;;;;10.85;2.30;;;;;;;;;;5074170;28;20013;-34
2024/02/04 13:00:29;;;;;;;12.18;2.25;;;;;;;;;;5073989;28;20017;-35
2024/02/04 13:02:54;;;;;;;12.68;2.53;;;;;;;;;;5074338;28;20020;-35
2024/02/04 13:05:26;;;;;;;13.73;2.40;;;;;;;;;;5073306;28;20044;-34
2024/02/04 13:07:52;;;;;;;11.25;2.80;;;;;;;;;;5073597;28;20028;-34
2024/02/04 13:10:17;;;;;;;10.15;2.38;;;;;;;;;;5073402;28;20061;-34
2024/02/04 13:12:43;;;;;;;61.03;25.50;;;;;;;;;;5073401;28;20028;-34
2024/02/04 13:15:09;;;;;;;11.50;2.75;;;;;;;;;;5072123;28;20795;-34
2024/02/04 13:17:34;;;;;;;12.65;2.30;;;;;;;;;;5071933;28;20020;-34
2024/02/04 13:19:59;;;;;;;6.75;2.10;;;;;;;;;;5072127;28;20044;-35
2024/02/04 13:22:24;;;;;;;9.43;2.07;;;;;;;;;;5073633;28;20025;-35
2024/02/04 13:24:49;;;;;;;6.43;1.90;;;;;;;;;;5071340;28;20820;-34
2024/02/04 13:27:16;;;;;;;11.10;2.43;;;;;;;;;;5072764;28;20016;-32
2024/02/04 13:29:41;;;;;;;9.10;2.28;;;;;;;;;;5073143;28;20035;-33
2024/02/04 13:32:06;;;;;;;10.57;2.30;;;;;;;;;;5073491;28;20040;-33
2024/02/04 13:34:32;;;;;;;9.37;2.40;;;;;;;;;;5072691;28;20020;-33
2024/02/04 13:36:57;;;;;;;6.68;2.10;;;;;;;;;;5072941;28;20250;-32
2024/02/04 13:39:22;;;;;;;6.95;2.17;;;;;;;;;;5072296;28;20052;-33
2024/02/04 13:41:47;;;;;;;7.30;1.90;;;;;;;;;;5072830;28;20065;-33
2024/02/04 13:44:13;;;;;;;9.38;2.13;;;;;;;;;;5072675;28;20478;-33
2024/02/04 13:46:42;;;;;;;5.82;1.90;;;;;;;;;;5072251;28;20100;-32
2024/02/04 13:49:08;;;;;;;9.95;2.15;;;;;;;;;;5072484;28;20036;-33
2024/02/04 13:51:33;;;;;;;10.00;2.40;;;;;;;;;;5073250;28;20017;-33
2024/02/04 13:53:58;;;;;;;7.50;2.10;;;;;;;;;;5072962;28;20020;-33
2024/02/04 13:56:23;;;;;;;8.13;2.20;;;;;;;;;;5072365;28;20395;-33
2024/02/04 13:58:48;;;;;;;6.22;1.88;;;;;;;;;;5072501;28;20259;-33
2024/02/04 14:01:15;;;;;;;9.23;2.05;;;;;;;;;;5072387;28;20017;-33
2024/02/04 14:03:40;;;;;;;8.85;2.05;;;;;;;;;;5072168;28;20048;-33
2024/02/04 14:06:05;;;;;;;8.70;1.90;;;;;;;;;;5073000;28;20413;-33
2024/02/04 14:08:30;;;;;;;12.30;2.20;;;;;;;;;;5073040;28;20247;-33
2024/02/04 14:10:56;;;;;;;10.38;2.10;;;;;;;;;;5072239;28;20087;-33
2024/02/04 14:13:21;;;;;;;9.63;2.50;;;;;;;;;;5072511;28;20525;-33
2024/02/04 14:15:47;;;;;;;9.80;2.70;;;;;;;;;;5072483;28;20443;-33
2024/02/04 14:18:12;;;;;;;11.85;2.70;;;;;;;;;;5072886;28;20255;-33
2024/02/04 14:20:37;;;;;;;9.73;2.33;;;;;;;;;;5072109;28;20466;-33
2024/02/04 14:23:02;;;;;;;5.83;2.10;;;;;;;;;;5072790;28;20519;-33
2024/02/04 14:25:27;;;;;;;11.77;2.13;;;;;;;;;;5073429;28;20028;-33